Blythe Airport
KBLH : now visible

Airfield :











YOU CAN JOIN US ON...

 
LOGIN :

Register | Disclaimer

   EN    FR    IT 

 









Legend :    VFR   Marginal VFR   IFR   Intensive IFR   Very Intensive IFR
Visi :
Ceiling :
>= 8 km
>= 3000ft
5 to 8 km
1000 to 3000 ft
1500m to 5 km
500 to 1000 ft
800 to 1500m
200 to 500 ft
< 800m
< 200 ft
Symbols :   Thunderstorms  Fog  Heavy snow  Heavy precipitations  Wind > 20 kt






- Airport Elevation : 399 ft


KBLH - Blythe

CURRENT METAR :
  • 280952Z AUTO 32003KT 10SM CLR 12/M06 A3017 RMK AO2 SLP212 T01221061

EXPIRED METARs :
  • 280852Z AUTO 04004KT 10SM CLR 12/M04 A3017 RMK AO2 SLP212 T01221044 56015
  • 280752Z AUTO 32006KT 10SM CLR 13/M06 A3018 RMK AO2 SLP216 T01331056 402560050

TAF KBLH
Valid from the 28 at 06:00 until the 29 at 06:00 UTC


280520Z 2806/2906 VRB06KT P6SM OVC250
FM281800 06005KT P6SM BKN180 BKN250
FM290300 VRB03KT P6SM SCT180



MET'MAP, your aeronautical weather chart ! - Copyright ORBIFLY December 2007 - Disclaimer

ORBIFLY MET'MAP TEAM :

Programming & Development : Alexandra Zaïnal
Concept & original design : Baudouin d'Aumeries
Assistance for programming : Marc-Olivier Méhu
Technical & hardware support : Manuel Goepfert

Contact : metmap@orbifly.com




SOURCES & CREDITS :

   NOAA       Earth
Advisory